Time;durP1;ratioP1;P1;durP2;ratioP2;P2;SDS_P1;SDS_P2;PMS_P1;PMS_P2;Temp;Humidity;BMP_temperature;BMP_pressure;BME280_temperature;BME280_humidity;BME280_pressure;Samples;Min_cycle;Max_cycle;Signal;HPM_P1;HPM_P2
2021/12/19 00:01:23;;;;;;;23.40;20.45;;;10.30;72.00;;;;;;5010476;28;20044;-73
2021/12/19 00:09:29;;;;;;;23.88;21.27;;;10.30;72.00;;;;;;5009736;28;20496;-74
2021/12/19 00:11:57;;;;;;;23.88;19.58;;;10.20;72.30;;;;;;5027994;28;20018;-73
2021/12/19 00:14:23;;;;;;;24.65;20.98;;;10.30;72.00;;;;;;5009687;28;20052;-73
2021/12/19 00:16:51;;;;;;;25.45;21.55;;;10.20;71.80;;;;;;5028090;28;20037;-73
2021/12/19 00:19:17;;;;;;;24.27;20.08;;;10.20;71.80;;;;;;5009523;28;20044;-74
2021/12/19 00:21:44;;;;;;;26.48;21.92;;;10.20;71.80;;;;;;5027794;28;20030;-74
2021/12/19 00:24:10;;;;;;;24.15;19.58;;;10.20;71.80;;;;;;5032234;28;20090;-74
2021/12/19 00:26:36;;;;;;;24.27;19.73;;;10.20;71.80;;;;;;5020479;28;20021;-73
2021/12/19 00:29:03;;;;;;;24.77;20.02;;;10.20;71.90;;;;;;5047161;28;20373;-75
2021/12/19 00:31:31;;;;;;;23.30;19.45;;;10.20;71.90;;;;;;5029769;28;20473;-74
2021/12/19 00:33:58;;;;;;;24.65;20.30;;;10.20;71.90;;;;;;5043958;28;20127;-74
2021/12/19 00:36:25;;;;;;;22.80;18.67;;;10.20;71.90;;;;;;5027960;28;20497;-73
2021/12/19 00:38:51;;;;;;;25.15;20.60;;;10.20;71.90;;;;;;5010253;28;20030;-73
2021/12/19 00:41:17;;;;;;;22.75;18.42;;;10.20;71.90;;;;;;5027174;28;20041;-73
2021/12/19 00:46:12;;;;;;;25.20;20.52;;;10.20;71.90;;;;;;5047104;28;20035;-75
2021/12/19 00:48:42;;;;;;;25.90;20.58;;;10.20;71.90;;;;;;5046871;28;20045;-76
2021/12/19 00:51:12;;;;;;;24.30;19.67;;;10.20;71.80;;;;;;5046663;28;20207;-75
2021/12/19 00:53:38;;;;;;;25.85;20.35;;;10.20;71.80;;;;;;5047080;28;20419;-75
2021/12/19 00:56:06;;;;;;;26.17;20.55;;;10.20;71.80;;;;;;5037836;28;20029;-73
2021/12/19 00:58:32;;;;;;;26.15;19.88;;;10.20;71.80;;;;;;5041495;28;20040;-74
2021/12/19 01:00:58;;;;;;;25.63;19.83;;;10.20;71.80;;;;;;4992957;28;20068;-73
2021/12/19 01:03:24;;;;;;;23.08;18.02;;;10.20;71.80;;;;;;5026822;28;20025;-74
2021/12/19 01:05:52;;;;;;;24.02;18.52;;;10.20;71.80;;;;;;5045566;28;20036;-74
2021/12/19 01:08:18;;;;;;;24.25;18.63;;;10.20;71.80;;;;;;5046700;28;20487;-74
2021/12/19 01:10:47;;;;;;;24.27;18.33;;;10.20;71.80;;;;;;5045977;28;20041;-74
2021/12/19 01:13:14;;;;;;;25.88;19.92;;;10.10;71.60;;;;;;5046248;28;20032;-74
2021/12/19 01:15:40;;;;;;;26.75;18.88;;;10.20;71.80;;;;;;5045946;28;20118;-74
2021/12/19 01:18:07;;;;;;;24.00;18.17;;;10.10;71.60;;;;;;5029118;28;20029;-74
2021/12/19 01:20:37;;;;;;;25.42;18.70;;;10.10;71.70;;;;;;5046618;28;20051;-74
2021/12/19 01:23:04;;;;;;;25.88;19.23;;;10.10;71.70;;;;;;5047191;28;20036;-74
2021/12/19 01:25:30;;;;;;;24.58;18.13;;;10.10;71.70;;;;;;5046178;28;20065;-73
2021/12/19 01:27:57;;;;;;;27.98;19.38;;;10.10;71.70;;;;;;5036513;28;20439;-75
2021/12/19 01:30:23;;;;;;;26.27;19.00;;;10.10;71.70;;;;;;4997404;28;20042;-74
2021/12/19 01:32:50;;;;;;;26.67;20.63;;;10.10;71.70;;;;;;5026359;28;20488;-74
2021/12/19 01:35:18;;;;;;;22.65;17.67;;;10.10;71.70;;;;;;5026479;28;20041;-74
2021/12/19 01:37:45;;;;;;;25.13;18.13;;;10.10;71.80;;;;;;5008010;28;20029;-75
2021/12/19 01:40:13;;;;;;;26.15;19.27;;;10.10;71.80;;;;;;5006762;28;20072;-74
2021/12/19 01:42:42;;;;;;;25.30;18.30;;;10.00;71.60;;;;;;5020908;28;20052;-74
2021/12/19 01:45:11;;;;;;;25.25;18.48;;;10.10;71.70;;;;;;5019158;28;20033;-73
2021/12/19 01:47:38;;;;;;;25.10;16.77;;;10.00;71.60;;;;;;5008193;28;20516;-74
2021/12/19 01:50:06;;;;;;;26.73;18.77;;;10.00;71.60;;;;;;5025499;28;20038;-73
2021/12/19 01:52:32;;;;;;;25.52;17.73;;;10.00;71.60;;;;;;5026314;28;20132;-73
2021/12/19 01:54:58;;;;;;;25.67;18.15;;;10.00;71.60;;;;;;5026658;28;20129;-74
2021/12/19 01:57:25;;;;;;;25.55;17.73;;;10.10;71.80;;;;;;5017320;28;20489;-73
2021/12/19 01:59:55;;;;;;;23.17;17.60;;;10.00;71.60;;;;;;5025749;28;20021;-74
2021/12/19 02:02:22;;;;;;;25.02;18.23;;;10.00;71.60;;;;;;5025849;28;20038;-74
2021/12/19 02:04:48;;;;;;;25.40;18.77;;;10.10;71.80;;;;;;5025772;28;20026;-73
2021/12/19 02:07:15;;;;;;;23.50;17.73;;;10.10;71.80;;;;;;5026049;28;20033;-73
2021/12/19 02:09:42;;;;;;;24.65;17.40;;;10.10;71.70;;;;;;5025484;28;20121;-71
2021/12/19 02:12:08;;;;;;;24.08;16.30;;;10.00;71.60;;;;;;5025326;28;20220;-74
2021/12/19 02:14:35;;;;;;;25.45;18.33;;;10.00;71.60;;;;;;5025566;28;20065;-74
2021/12/19 02:17:01;;;;;;;25.27;16.35;;;10.00;71.60;;;;;;5025175;28;20121;-75
2021/12/19 02:19:30;;;;;;;24.58;16.75;;;10.00;71.60;;;;;;5007631;28;20022;-75
2021/12/19 02:21:56;;;;;;;21.83;15.07;;;10.00;71.70;;;;;;5027369;28;20033;-74
2021/12/19 02:24:22;;;;;;;24.08;17.00;;;10.00;71.70;;;;;;5012003;28;20036;-74
2021/12/19 02:26:48;;;;;;;25.15;17.15;;;10.00;71.70;;;;;;5011880;28;20065;-73
2021/12/19 02:29:14;;;;;;;22.42;15.32;;;10.00;71.70;;;;;;5020084;28;20042;-73
2021/12/19 02:31:40;;;;;;;22.20;15.35;;;10.00;71.70;;;;;;4998881;28;20271;-75
2021/12/19 02:34:23;;;;;;;25.05;16.90;;;10.00;71.70;;;;;;5010718;28;20053;-74
2021/12/19 02:37:33;;;;;;;22.95;14.90;;;9.90;71.60;;;;;;5010074;28;20080;-73
2021/12/19 02:40:06;;;;;;;22.35;14.90;;;9.90;71.60;;;;;;5023415;28;20379;-74
2021/12/19 02:50:44;;;;;;;20.38;13.98;;;9.90;71.70;;;;;;5032744;28;20037;-73
2021/12/19 02:53:11;;;;;;;22.63;15.27;;;9.90;71.60;;;;;;5032712;28;20037;-73
2021/12/19 02:55:37;;;;;;;22.33;13.85;;;9.90;71.60;;;;;;5032456;28;20041;-74
2021/12/19 02:58:03;;;;;;;21.08;14.18;;;9.80;71.40;;;;;;5032314;28;20025;-74
2021/12/19 03:00:29;;;;;;;19.70;13.88;;;9.90;71.60;;;;;;5031021;28;20075;-73
2021/12/19 03:02:56;;;;;;;16.98;11.88;;;9.90;71.60;;;;;;5033964;28;20037;-74
2021/12/19 03:05:22;;;;;;;20.83;13.75;;;9.80;71.50;;;;;;5033753;28;20040;-73
2021/12/19 03:07:50;;;;;;;20.02;12.90;;;9.80;71.50;;;;;;5033039;28;20155;-75
2021/12/19 03:18:16;;;;;;;20.83;13.68;;;9.90;71.60;;;;;;5033357;28;20060;-75
2021/12/19 03:20:43;;;;;;;17.50;12.52;;;9.90;71.60;;;;;;5033996;28;20129;-74
2021/12/19 03:23:12;;;;;;;18.00;11.93;;;9.80;71.40;;;;;;5033672;28;20026;-74
2021/12/19 03:25:38;;;;;;;17.83;13.40;;;9.90;71.70;;;;;;5033544;28;20038;-73
2021/12/19 03:28:07;;;;;;;19.75;12.05;;;9.90;71.70;;;;;;5033095;28;20026;-74
2021/12/19 03:30:34;;;;;;;16.75;12.02;;;9.90;71.60;;;;;;5033627;28;20087;-73
2021/12/19 03:33:00;;;;;;;18.40;11.88;;;9.90;71.60;;;;;;5032541;28;20033;-73
2021/12/19 03:35:29;;;;;;;17.05;12.23;;;9.90;71.60;;;;;;5032955;28;20033;-73
2021/12/19 03:37:56;;;;;;;16.15;11.13;;;9.90;71.70;;;;;;5033062;28;20558;-74
2021/12/19 03:40:34;;;;;;;16.48;10.95;;;9.90;72.10;;;;;;5033521;28;20469;-73
2021/12/19 03:43:01;;;;;;;15.68;10.65;;;9.90;71.60;;;;;;5032795;28;20082;-74
2021/12/19 03:45:27;;;;;;;16.23;10.85;;;9.90;71.60;;;;;;5032810;28;20030;-73
2021/12/19 03:47:53;;;;;;;17.02;11.38;;;9.90;71.60;;;;;;5032620;28;20049;-74
2021/12/19 03:50:22;;;;;;;15.13;10.57;;;9.90;72.10;;;;;;5032017;28;20069;-73
2021/12/19 03:52:50;;;;;;;17.38;11.60;;;9.90;71.60;;;;;;5032577;28;20116;-74
2021/12/19 03:55:16;;;;;;;16.77;12.18;;;9.90;71.60;;;;;;5033297;28;20036;-74
2021/12/19 03:57:42;;;;;;;16.05;10.15;;;9.90;71.60;;;;;;5032483;28;20436;-74
2021/12/19 04:00:13;;;;;;;15.77;10.05;;;9.90;71.60;;;;;;5032731;28;20061;-74
2021/12/19 04:02:39;;;;;;;15.43;9.93;;;9.90;71.60;;;;;;5032609;28;20499;-75
2021/12/19 04:05:05;;;;;;;15.00;9.98;;;9.90;71.60;;;;;;5032801;28;20056;-74
2021/12/19 04:07:31;;;;;;;14.18;9.63;;;9.80;71.40;;;;;;5032850;28;20118;-75
2021/12/19 04:09:57;;;;;;;15.15;10.20;;;9.80;71.40;;;;;;5032605;28;20135;-74
2021/12/19 04:12:27;;;;;;;15.38;10.15;;;9.90;71.60;;;;;;5032004;28;20115;-74
2021/12/19 04:14:53;;;;;;;14.80;10.07;;;9.80;71.40;;;;;;5032445;28;20123;-75
2021/12/19 04:17:19;;;;;;;14.70;10.57;;;9.80;71.40;;;;;;5014576;28;20032;-75
2021/12/19 04:19:45;;;;;;;14.55;9.85;;;9.80;71.40;;;;;;5033045;28;20100;-75
2021/12/19 04:22:11;;;;;;;14.13;9.23;;;9.80;71.50;;;;;;5032668;28;20029;-74
2021/12/19 04:24:37;;;;;;;13.75;9.38;;;9.80;71.60;;;;;;5032228;28;20036;-75
2021/12/19 04:27:04;;;;;;;14.93;10.20;;;9.80;72.10;;;;;;5032124;28;20041;-73
2021/12/19 04:29:30;;;;;;;15.50;9.85;;;9.80;71.60;;;;;;5032612;28;20456;-73
2021/12/19 04:31:56;;;;;;;12.50;8.52;;;9.80;71.60;;;;;;5032115;28;20411;-73
2021/12/19 04:34:23;;;;;;;14.15;9.18;;;9.70;71.40;;;;;;5014676;28;20108;-73
2021/12/19 04:36:55;;;;;;;13.25;9.65;;;9.70;71.50;;;;;;5014623;28;20045;-74
2021/12/19 05:01:09;;;;;;;13.82;8.48;;;9.70;71.60;;;;;;5051610;28;20029;-75
2021/12/19 05:14:22;;;;;;;11.30;7.72;;;9.60;71.90;;;;;;5033776;28;20029;-74
2021/12/19 05:16:50;;;;;;;13.23;8.13;;;9.60;71.40;;;;;;5052262;28;20389;-74
2021/12/19 05:19:30;;;;;;;11.20;8.27;;;9.60;71.40;;;;;;5051317;28;20476;-75
2021/12/19 05:22:01;;;;;;;12.63;8.60;;;9.60;71.40;;;;;;5051240;28;20476;-75
2021/12/19 05:27:11;;;;;;;11.32;7.53;;;9.60;71.40;;;;;;5033156;28;20044;-75
2021/12/19 05:29:38;;;;;;;9.70;6.85;;;9.60;71.50;;;;;;5033207;28;20044;-74
2021/12/19 05:32:05;;;;;;;9.38;7.20;;;9.50;71.30;;;;;;5050898;28;20040;-73
2021/12/19 05:34:31;;;;;;;11.00;7.78;;;9.50;71.30;;;;;;5033079;28;20021;-73
2021/12/19 05:45:12;;;;;;;9.30;6.45;;;9.50;71.40;;;;;;5051008;28;20025;-74
2021/12/19 05:47:43;;;;;;;10.57;7.35;;;9.50;71.40;;;;;;5020771;28;20416;-74
2021/12/19 05:50:10;;;;;;;8.23;5.65;;;9.50;71.40;;;;;;4990355;28;20033;-73
2021/12/19 05:52:36;;;;;;;10.52;6.57;;;9.50;71.40;;;;;;5007678;28;20393;-74
2021/12/19 05:55:04;;;;;;;9.05;6.25;;;9.40;71.30;;;;;;4990415;28;20271;-75
2021/12/19 05:57:29;;;;;;;9.52;6.70;;;9.40;71.20;;;;;;5008542;28;20028;-73
2021/12/19 05:59:55;;;;;;;9.10;6.63;;;9.50;71.40;;;;;;5009768;28;20041;-73
2021/12/19 06:02:21;;;;;;;9.32;6.45;;;9.40;71.20;;;;;;5026515;28;20029;-74
2021/12/19 06:04:47;;;;;;;8.20;5.70;;;9.40;71.20;;;;;;5025738;28;20036;-73
2021/12/19 06:07:13;;;;;;;8.70;6.38;;;9.40;71.20;;;;;;5026063;28;20064;-73
2021/12/19 06:09:39;;;;;;;9.73;6.30;;;9.40;71.20;;;;;;5025280;28;20041;-74
2021/12/19 06:12:05;;;;;;;10.30;7.22;;;9.40;71.20;;;;;;5007973;28;20121;-74
2021/12/19 06:14:33;;;;;;;7.82;5.80;;;9.40;71.20;;;;;;5025451;28;20057;-74
2021/12/19 06:17:01;;;;;;;9.80;7.53;;;9.40;71.20;;;;;;5008295;28;20037;-75
2021/12/19 06:19:27;;;;;;;8.63;5.65;;;9.40;71.30;;;;;;5025857;28;20213;-74
2021/12/19 06:21:53;;;;;;;7.70;6.03;;;9.30;71.10;;;;;;5007515;28;20806;-74
2021/12/19 06:24:20;;;;;;;7.68;5.88;;;9.40;71.20;;;;;;5008065;28;20067;-74
2021/12/19 06:26:46;;;;;;;7.32;5.38;;;9.40;71.30;;;;;;5026008;28;20448;-75
2021/12/19 06:29:12;;;;;;;6.85;5.32;;;9.30;71.10;;;;;;5025776;28;20029;-74
2021/12/19 06:31:39;;;;;;;8.63;6.38;;;9.30;71.10;;;;;;5025535;28;20061;-73
2021/12/19 06:34:05;;;;;;;7.75;5.50;;;9.30;71.10;;;;;;5025497;28;20063;-74
2021/12/19 06:36:31;;;;;;;8.02;5.22;;;9.30;71.10;;;;;;5025549;28;20038;-74
2021/12/19 06:38:58;;;;;;;8.18;6.18;;;9.30;71.10;;;;;;5025426;28;20040;-74
2021/12/19 06:41:24;;;;;;;7.88;5.60;;;9.30;71.10;;;;;;5007514;28;20037;-74
2021/12/19 06:43:50;;;;;;;8.02;5.00;;;9.30;71.10;;;;;;5025568;28;20604;-74
2021/12/19 06:46:16;;;;;;;6.35;4.85;;;9.30;71.10;;;;;;5007899;28;20109;-74
2021/12/19 06:48:42;;;;;;;6.00;5.07;;;9.30;71.10;;;;;;5015327;28;20053;-74
2021/12/19 06:51:08;;;;;;;8.18;5.78;;;9.30;71.10;;;;;;5025564;28;20041;-74
2021/12/19 06:53:35;;;;;;;6.63;5.35;;;9.30;71.10;;;;;;5023600;28;20034;-73
2021/12/19 06:56:00;;;;;;;6.30;4.70;;;9.30;71.10;;;;;;5026212;28;20033;-74
2021/12/19 06:58:26;;;;;;;6.65;5.10;;;9.30;71.10;;;;;;5016474;28;20040;-74
2021/12/19 07:00:52;;;;;;;6.28;4.93;;;9.30;71.10;;;;;;5045506;28;20487;-74
2021/12/19 07:03:23;;;;;;;6.38;4.57;;;9.30;71.10;;;;;;5044910;28;20039;-73
2021/12/19 07:05:50;;;;;;;6.90;5.22;;;9.30;71.10;;;;;;5045983;28;20037;-73
2021/12/19 07:08:17;;;;;;;6.25;4.85;;;9.30;71.10;;;;;;5045217;28;20287;-75
2021/12/19 07:10:43;;;;;;;6.57;4.60;;;9.30;71.10;;;;;;5048672;28;20512;-74
2021/12/19 07:13:09;;;;;;;4.90;4.00;;;9.20;70.90;;;;;;5046993;28;20078;-74
2021/12/19 07:15:35;;;;;;;5.60;4.55;;;9.30;71.10;;;;;;5048019;28;20037;-73
2021/12/19 07:18:06;;;;;;;6.07;4.45;;;9.20;71.10;;;;;;5048081;28;20029;-75
2021/12/19 07:20:32;;;;;;;5.53;4.25;;;9.30;71.40;;;;;;5048735;28;20549;-73
2021/12/19 07:22:58;;;;;;;4.65;3.70;;;9.30;71.40;;;;;;5047762;28;20028;-73
2021/12/19 07:25:24;;;;;;;5.82;4.55;;;9.30;71.40;;;;;;5049206;28;20040;-74
2021/12/19 07:27:51;;;;;;;5.22;4.00;;;9.20;71.10;;;;;;5048752;28;20499;-74
2021/12/19 07:30:17;;;;;;;5.32;4.15;;;9.30;71.30;;;;;;5048617;28;20028;-74
2021/12/19 07:32:43;;;;;;;4.75;3.80;;;9.20;71.20;;;;;;5048075;28;20264;-73
2021/12/19 07:35:10;;;;;;;4.57;3.70;;;9.20;71.20;;;;;;5048917;28;20080;-73
2021/12/19 07:37:37;;;;;;;5.03;3.58;;;9.20;71.20;;;;;;5048989;28;20040;-73
2021/12/19 07:40:13;;;;;;;4.57;3.70;;;9.20;71.20;;;;;;5048124;28;20043;-73
2021/12/19 07:42:40;;;;;;;5.22;3.80;;;9.20;71.20;;;;;;5046416;28;20056;-73
2021/12/19 07:45:07;;;;;;;4.65;3.92;;;9.20;71.20;;;;;;5048190;28;20083;-73
2021/12/19 07:47:33;;;;;;;4.43;3.65;;;9.20;71.20;;;;;;5046622;28;20039;-73
2021/12/19 07:49:59;;;;;;;5.28;3.92;;;9.20;71.20;;;;;;5047979;28;20045;-73
2021/12/19 07:52:25;;;;;;;4.32;3.60;;;9.20;71.70;;;;;;5047800;28;20036;-73
2021/12/19 07:54:51;;;;;;;4.35;3.50;;;9.20;71.20;;;;;;5048002;28;20028;-73
2021/12/19 07:57:17;;;;;;;3.85;3.17;;;9.20;71.20;;;;;;5025244;28;20349;-74
2021/12/19 07:59:43;;;;;;;4.38;3.58;;;9.20;71.20;;;;;;5025771;28;20032;-74
2021/12/19 08:02:09;;;;;;;3.40;2.92;;;9.20;71.20;;;;;;5028125;28;20040;-73
2021/12/19 08:04:35;;;;;;;4.75;3.72;;;9.20;71.20;;;;;;5009911;28;20075;-74
2021/12/19 08:07:01;;;;;;;3.97;3.10;;;9.10;71.00;;;;;;5006166;28;20116;-73
2021/12/19 08:09:38;;;;;;;5.40;3.92;;;9.10;71.00;;;;;;5023668;28;20532;-73
2021/12/19 08:12:05;;;;;;;3.97;3.47;;;9.10;71.00;;;;;;5027495;28;20041;-74
2021/12/19 08:14:32;;;;;;;4.85;3.58;;;9.10;71.00;;;;;;5026757;28;20026;-74
2021/12/19 08:16:58;;;;;;;4.15;3.25;;;9.10;71.00;;;;;;5027855;28;20033;-73
2021/12/19 08:19:24;;;;;;;4.90;3.38;;;9.10;71.00;;;;;;5027043;28;20030;-74
2021/12/19 08:21:52;;;;;;;4.03;3.30;;;9.00;70.80;;;;;;5027349;28;20041;-74
2021/12/19 08:24:19;;;;;;;3.72;3.22;;;9.10;70.90;;;;;;5024407;28;20022;-74
2021/12/19 08:26:46;;;;;;;4.63;3.50;;;9.00;70.80;;;;;;4990823;28;20244;-74
2021/12/19 08:29:12;;;;;;;3.80;3.22;;;9.00;70.80;;;;;;5021376;28;20035;-74
2021/12/19 08:31:40;;;;;;;4.28;3.35;;;9.00;70.70;;;;;;5026168;28;20044;-74
2021/12/19 08:34:06;;;;;;;3.80;3.40;;;9.00;70.70;;;;;;5013569;28;20029;-74
2021/12/19 08:36:32;;;;;;;3.72;3.13;;;9.00;70.80;;;;;;5025147;28;20035;-74
2021/12/19 08:38:58;;;;;;;3.60;3.08;;;9.00;70.80;;;;;;5025878;28;20124;-75
2021/12/19 08:41:24;;;;;;;3.83;3.38;;;9.00;70.80;;;;;;5008946;28;20100;-74
2021/12/19 08:43:51;;;;;;;4.50;3.80;;;9.00;70.70;;;;;;5025999;28;20041;-74
2021/12/19 08:46:20;;;;;;;3.85;3.13;;;9.00;70.70;;;;;;4994058;28;20028;-75
2021/12/19 08:48:47;;;;;;;3.55;2.95;;;9.00;70.70;;;;;;5015978;28;20135;-74
2021/12/19 08:51:13;;;;;;;3.35;3.05;;;9.00;70.70;;;;;;5026206;28;20405;-74
2021/12/19 08:53:39;;;;;;;3.88;3.20;;;9.00;70.70;;;;;;5033846;28;20467;-74
2021/12/19 08:56:05;;;;;;;4.28;3.15;;;9.00;70.60;;;;;;5044907;28;20356;-74
2021/12/19 08:58:31;;;;;;;3.38;2.97;;;9.00;70.60;;;;;;5027741;28;20102;-74
2021/12/19 09:01:01;;;;;;;3.38;3.08;;;9.00;70.60;;;;;;5026364;28;20104;-74
2021/12/19 09:03:29;;;;;;;3.58;3.03;;;9.00;70.50;;;;;;5025436;28;20401;-74
2021/12/19 09:05:56;;;;;;;3.72;3.05;;;9.00;70.50;;;;;;5025552;28;20039;-74
2021/12/19 09:08:22;;;;;;;3.60;3.30;;;9.00;70.50;;;;;;5019913;28;20528;-74
2021/12/19 09:10:49;;;;;;;4.38;3.22;;;9.00;70.40;;;;;;5025846;28;20037;-74
2021/12/19 09:13:15;;;;;;;3.40;3.10;;;9.00;70.40;;;;;;5026528;28;20075;-74
2021/12/19 09:15:41;;;;;;;3.17;2.65;;;9.00;70.40;;;;;;5026701;28;20589;-73
2021/12/19 09:18:07;;;;;;;3.30;3.00;;;9.10;70.50;;;;;;5025755;28;20025;-73
2021/12/19 09:20:33;;;;;;;3.20;2.90;;;9.10;70.40;;;;;;5024687;28;20222;-74
2021/12/19 09:22:59;;;;;;;3.20;2.90;;;9.10;70.40;;;;;;5024326;28;20355;-74
2021/12/19 09:25:25;;;;;;;3.83;3.00;;;9.10;70.30;;;;;;5024829;28;20623;-75
2021/12/19 09:27:51;;;;;;;3.22;2.92;;;9.10;70.20;;;;;;5024278;28;20623;-74
2021/12/19 09:30:17;;;;;;;3.70;3.30;;;9.10;70.20;;;;;;5023060;28;20072;-73
2021/12/19 09:32:43;;;;;;;3.72;3.33;;;9.10;70.20;;;;;;5023837;28;20373;-74
2021/12/19 09:35:10;;;;;;;3.88;3.40;;;9.20;70.80;;;;;;5024215;28;20061;-73
2021/12/19 09:37:36;;;;;;;3.58;3.20;;;9.10;70.10;;;;;;5026850;28;20500;-74
2021/12/19 09:40:09;;;;;;;3.30;3.00;;;9.20;70.20;;;;;;5027921;28;20033;-73
2021/12/19 09:42:37;;;;;;;3.22;2.92;;;9.20;70.20;;;;;;5029847;28;20035;-74
2021/12/19 09:45:05;;;;;;;3.97;2.97;;;9.20;70.10;;;;;;5029554;28;20037;-73
2021/12/19 09:47:31;;;;;;;3.53;2.90;;;9.30;70.20;;;;;;5026936;28;20385;-75
2021/12/19 09:49:57;;;;;;;3.15;2.85;;;9.20;70.00;;;;;;5009834;28;20038;-74
2021/12/19 09:52:25;;;;;;;2.78;2.58;;;9.30;70.10;;;;;;5026269;28;20037;-74
2021/12/19 09:54:51;;;;;;;3.38;3.08;;;9.30;70.10;;;;;;5027890;28;20123;-73
2021/12/19 09:57:17;;;;;;;3.30;2.95;;;9.30;70.00;;;;;;5027296;28;20032;-73
2021/12/19 09:59:43;;;;;;;3.95;3.10;;;9.40;70.10;;;;;;5027339;28;20380;-74
2021/12/19 10:02:09;;;;;;;3.20;2.78;;;9.40;70.00;;;;;;5009251;28;20037;-74
2021/12/19 10:04:37;;;;;;;3.00;2.70;;;9.50;70.00;;;;;;5029263;28;20029;-73
2021/12/19 10:07:17;;;;;;;3.22;2.92;;;9.50;69.90;;;;;;5026027;28;20045;-74
2021/12/19 10:10:23;;;;;;;3.15;2.85;;;9.60;69.90;;;;;;5011018;28;20473;-74
2021/12/19 10:12:58;;;;;;;2.58;2.28;;;9.60;69.80;;;;;;5029498;28;20481;-73
2021/12/19 10:15:38;;;;;;;3.22;2.85;;;9.70;69.90;;;;;;5029351;28;20068;-74
2021/12/19 10:18:07;;;;;;;2.90;2.60;;;9.70;69.70;;;;;;5040700;28;20033;-74
2021/12/19 10:21:00;;;;;;;3.00;2.58;;;9.80;69.80;;;;;;5026503;28;20029;-73
2021/12/19 10:23:31;;;;;;;2.53;2.13;;;9.80;69.70;;;;;;5024166;28;20048;-74
2021/12/19 10:26:16;;;;;;;3.25;2.90;;;9.80;69.60;;;;;;5025724;28;20021;-75
2021/12/19 10:28:58;;;;;;;6.05;2.90;;;9.90;69.90;;;;;;4991298;28;20119;-74
2021/12/19 10:31:25;;;;;;;6.18;3.28;;;10.00;70.50;;;;;;5025339;28;20440;-73
2021/12/19 10:33:52;;;;;;;3.63;2.83;;;10.10;70.80;;;;;;5025612;28;20481;-74
2021/12/19 10:36:19;;;;;;;4.15;2.35;;;10.30;71.20;;;;;;5008608;28;20041;-73
2021/12/19 10:38:51;;;;;;;3.38;2.20;;;10.30;71.30;;;;;;5025291;28;20378;-73
2021/12/19 10:41:21;;;;;;;3.23;2.47;;;10.40;71.60;;;;;;5061906;23;20412;-77
2021/12/19 10:44:00;;;;;;;2.78;1.90;;;10.60;71.80;;;;;;5014192;28;20026;-76
2021/12/19 10:46:32;;;;;;;3.90;2.00;;;10.60;71.70;;;;;;5017913;28;20517;-76
2021/12/19 10:48:59;;;;;;;2.80;1.98;;;10.70;71.80;;;;;;5026217;28;20022;-74
2021/12/19 10:51:27;;;;;;;2.70;2.22;;;10.70;71.70;;;;;;5034442;28;20057;-77
2021/12/19 10:53:56;;;;;;;2.72;2.45;;;10.70;71.70;;;;;;5043030;28;20065;-75
2021/12/19 10:56:33;;;;;;;3.40;2.00;;;10.80;71.80;;;;;;5048553;28;20091;-75
2021/12/19 10:59:11;;;;;;;2.55;2.05;;;10.80;71.70;;;;;;5042429;28;20381;-74
2021/12/19 11:01:38;;;;;;;2.40;2.20;;;10.80;71.70;;;;;;5037534;28;20090;-76
2021/12/19 11:04:04;;;;;;;3.05;2.10;;;10.80;71.60;;;;;;5015725;28;20029;-77
2021/12/19 11:06:36;;;;;;;3.13;2.30;;;10.80;71.50;;;;;;5035893;28;20029;-79
2021/12/19 11:09:15;;;;;;;2.60;2.40;;;10.80;71.50;;;;;;5042496;28;20036;-73
2021/12/19 11:11:48;;;;;;;2.58;1.90;;;10.80;71.40;;;;;;5049127;28;20047;-74
2021/12/19 11:14:37;;;;;;;2.50;2.28;;;10.80;71.30;;;;;;5043062;28;20410;-72
2021/12/19 11:17:10;;;;;;;2.88;2.30;;;10.80;71.20;;;;;;5068659;28;20040;-74
2021/12/19 11:19:38;;;;;;;2.55;1.98;;;10.80;71.20;;;;;;5049908;28;20066;-73
2021/12/19 11:22:05;;;;;;;1.88;1.75;;;10.80;71.10;;;;;;5050872;28;20025;-74
2021/12/19 11:24:32;;;;;;;2.80;1.98;;;10.90;71.20;;;;;;5050657;28;20215;-80
2021/12/19 11:27:01;;;;;;;2.90;2.22;;;10.80;71.00;;;;;;5043781;28;20687;-75
2021/12/19 11:29:28;;;;;;;2.50;2.30;;;10.90;71.10;;;;;;5010551;28;20025;-75
2021/12/19 11:31:58;;;;;;;3.03;2.00;;;10.80;70.90;;;;;;5047982;28;20037;-74
2021/12/19 11:35:00;;;;;;;2.15;1.85;;;10.80;70.80;;;;;;5044025;28;20029;-75
2021/12/19 11:37:29;;;;;;;2.85;2.25;;;10.90;70.90;;;;;;5027756;28;20491;-74
2021/12/19 11:39:57;;;;;;;3.17;2.35;;;10.90;70.90;;;;;;5044836;28;20064;-75
2021/12/19 11:42:30;;;;;;;2.80;2.53;;;11.00;71.20;;;;;;5037249;28;20041;-76
2021/12/19 11:47:36;;;;;;;2.55;2.35;;;11.10;71.20;;;;;;5049191;28;20024;-77
2021/12/19 11:50:22;;;;;;;2.58;2.08;;;11.20;71.20;;;;;;5030577;28;20047;-76
2021/12/19 11:52:59;;;;;;;2.95;2.20;;;11.20;71.00;;;;;;5012233;28;20036;-75
2021/12/19 11:55:33;;;;;;;2.33;2.13;;;11.30;71.00;;;;;;5039411;28;20032;-74
2021/12/19 11:58:08;;;;;;;2.30;2.10;;;11.30;70.90;;;;;;5030852;28;20121;-77
2021/12/19 12:00:47;;;;;;;4.15;2.03;;;11.30;70.70;;;;;;5038451;28;20036;-78
2021/12/19 12:03:13;;;;;;;2.22;2.03;;;11.30;70.70;;;;;;5037155;28;20116;-77
2021/12/19 12:05:49;;;;;;;2.45;1.70;;;11.30;70.60;;;;;;5038497;28;20115;-78
2021/12/19 12:08:17;;;;;;;3.05;2.22;;;11.30;70.60;;;;;;5043173;28;20403;-74
2021/12/19 12:10:53;;;;;;;3.28;2.00;;;11.30;70.50;;;;;;5039530;28;20484;-76
2021/12/19 12:13:31;;;;;;;2.33;2.05;;;11.30;70.40;;;;;;5032082;28;20033;-75
2021/12/19 12:16:25;;;;;;;2.83;2.50;;;11.30;70.40;;;;;;5047308;28;20137;-74
2021/12/19 12:19:00;;;;;;;2.95;2.30;;;11.40;70.80;;;;;;5045820;28;20068;-73
2021/12/19 12:24:05;;;;;;;2.65;2.25;;;11.60;71.60;;;;;;5029087;28;20062;-74
2021/12/19 12:26:39;;;;;;;3.45;3.15;;;11.70;71.70;;;;;;5047549;28;20085;-76
2021/12/19 12:29:05;;;;;;;2.50;2.30;;;11.70;72.20;;;;;;5054329;28;20109;-74
2021/12/19 12:31:32;;;;;;;5.55;2.30;;;11.70;71.60;;;;;;5036187;28;20042;-77
2021/12/19 12:33:58;;;;;;;2.95;2.65;;;11.70;71.60;;;;;;5036793;28;20060;-76
2021/12/19 12:36:25;;;;;;;2.75;2.50;;;11.70;71.60;;;;;;5029471;28;20033;-72
2021/12/19 12:38:52;;;;;;;2.50;2.30;;;11.60;71.40;;;;;;5045665;28;20032;-73
2021/12/19 12:43:56;;;;;;;2.40;2.20;;;11.60;71.10;;;;;;5044351;28;20025;-74
2021/12/19 12:46:25;;;;;;;2.33;2.08;;;11.50;70.90;;;;;;5022164;28;20029;-73
2021/12/19 12:48:55;;;;;;;2.05;1.85;;;11.50;70.80;;;;;;5028541;28;20029;-72
2021/12/19 12:51:26;;;;;;;3.30;2.47;;;11.50;70.70;;;;;;5035047;28;20069;-75
2021/12/19 12:53:54;;;;;;;3.20;2.10;;;11.40;70.40;;;;;;5042085;28;20033;-76
2021/12/19 12:56:31;;;;;;;2.13;1.80;;;11.40;70.20;;;;;;5046849;28;20391;-71
2021/12/19 12:59:00;;;;;;;3.08;2.13;;;11.40;70.00;;;;;;5029182;28;20066;-74
2021/12/19 13:01:30;;;;;;;2.15;1.95;;;11.40;69.90;;;;;;5018922;28;20029;-73
2021/12/19 13:04:24;;;;;;;2.50;2.30;;;11.40;69.70;;;;;;5014576;28;20063;-74
2021/12/19 13:06:53;;;;;;;2.22;1.95;;;11.40;69.50;;;;;;5034117;28;20040;-74
2021/12/19 13:09:50;;;;;;;2.13;1.92;;;11.30;69.30;;;;;;5028450;28;20029;-70
2021/12/19 13:12:28;;;;;;;2.28;2.08;;;11.30;69.00;;;;;;5032484;28;20475;-71
2021/12/19 13:14:58;;;;;;;2.17;1.98;;;11.30;68.90;;;;;;5038974;28;20063;-72
2021/12/19 13:17:50;;;;;;;2.47;2.28;;;11.40;69.00;;;;;;5027789;28;20029;-75
2021/12/19 13:20:20;;;;;;;2.00;1.80;;;11.30;68.60;;;;;;5025516;28;20204;-72
2021/12/19 13:23:03;;;;;;;2.28;2.08;;;11.30;69.20;;;;;;5026499;28;20030;-72
2021/12/19 13:25:38;;;;;;;2.50;2.30;;;11.30;68.50;;;;;;5035133;28;20061;-71
2021/12/19 13:28:08;;;;;;;2.83;2.45;;;11.30;68.50;;;;;;5028819;28;20038;-76
2021/12/19 13:30:38;;;;;;;2.65;2.40;;;11.20;68.20;;;;;;5042299;28;20545;-72
2021/12/19 13:33:14;;;;;;;2.47;2.15;;;11.20;68.20;;;;;;5028789;28;20110;-72
2021/12/19 13:35:51;;;;;;;2.53;2.33;;;11.20;68.10;;;;;;5043366;28;20186;-73
2021/12/19 13:38:23;;;;;;;2.42;2.22;;;11.20;68.00;;;;;;5043971;28;20021;-74
2021/12/19 13:40:56;;;;;;;2.47;2.15;;;11.10;67.90;;;;;;5043826;28;20057;-72
2021/12/19 13:43:25;;;;;;;2.53;2.33;;;11.10;67.90;;;;;;5025787;28;20048;-73
2021/12/19 13:45:56;;;;;;;2.30;2.10;;;11.10;67.80;;;;;;5044232;28;20059;-73
2021/12/19 13:48:31;;;;;;;2.63;2.42;;;11.10;67.80;;;;;;5044683;28;20058;-73
2021/12/19 13:51:00;;;;;;;2.60;2.40;;;11.10;67.70;;;;;;5043160;28;20123;-75
2021/12/19 13:53:28;;;;;;;2.70;2.50;;;11.00;67.50;;;;;;5042212;28;20033;-73
2021/12/19 13:56:07;;;;;;;2.75;2.55;;;11.00;67.50;;;;;;5044488;28;20033;-73
2021/12/19 13:58:36;;;;;;;2.95;2.65;;;11.00;67.30;;;;;;5029090;28;20341;-72
2021/12/19 14:01:17;;;;;;;3.10;2.80;;;11.00;67.40;;;;;;5044821;28;20029;-74
2021/12/19 14:03:46;;;;;;;3.30;2.60;;;10.90;67.10;;;;;;5052898;28;20028;-74
2021/12/19 14:06:24;;;;;;;2.83;2.40;;;10.90;67.20;;;;;;5047460;28;20279;-74
2021/12/19 14:08:59;;;;;;;3.17;2.78;;;10.80;67.00;;;;;;5065462;28;20032;-75
2021/12/19 14:11:27;;;;;;;2.92;2.63;;;10.80;67.10;;;;;;5065718;28;20036;-74